sensor_id;sensor_type;location;lat;lon;timestamp;P1;durP1;ratioP1;P2;durP2;ratioP2
50591;SDS011;36548;50.506;30.834;2022-08-19T00:01:04;5.85;;;4.50;;
50591;SDS011;36548;50.506;30.834;2022-08-19T00:02:31;6.17;;;4.38;;
50591;SDS011;36548;50.506;30.834;2022-08-19T00:03:47;11.38;;;5.07;;
50591;SDS011;36548;50.506;30.834;2022-08-19T00:06:32;6.05;;;4.58;;
50591;SDS011;36548;50.506;30.834;2022-08-19T00:07:43;7.30;;;4.95;;
50591;SDS011;36548;50.506;30.834;2022-08-19T00:08:59;9.32;;;4.82;;
50591;SDS011;36548;50.506;30.834;2022-08-19T00:10:10;7.25;;;4.90;;
50591;SDS011;36548;50.506;30.834;2022-08-19T00:11:23;5.92;;;4.95;;
50591;SDS011;36548;50.506;30.834;2022-08-19T00:12:34;7.02;;;4.62;;
50591;SDS011;36548;50.506;30.834;2022-08-19T00:13:51;8.32;;;4.75;;
50591;SDS011;36548;50.506;30.834;2022-08-19T00:15:04;7.98;;;4.62;;
50591;SDS011;36548;50.506;30.834;2022-08-19T00:16:24;11.50;;;4.90;;
50591;SDS011;36548;50.506;30.834;2022-08-19T00:17:35;7.45;;;4.88;;
50591;SDS011;36548;50.506;30.834;2022-08-19T00:18:47;7.28;;;4.70;;
50591;SDS011;36548;50.506;30.834;2022-08-19T00:19:57;7.85;;;5.42;;
50591;SDS011;36548;50.506;30.834;2022-08-19T00:21:08;6.67;;;4.53;;
50591;SDS011;36548;50.506;30.834;2022-08-19T00:22:24;8.58;;;5.02;;
50591;SDS011;36548;50.506;30.834;2022-08-19T00:23:35;7.55;;;4.62;;
50591;SDS011;36548;50.506;30.834;2022-08-19T00:24:51;10.23;;;5.10;;
50591;SDS011;36548;50.506;30.834;2022-08-19T00:26:03;7.78;;;5.38;;
50591;SDS011;36548;50.506;30.834;2022-08-19T00:27:31;5.75;;;5.10;;
50591;SDS011;36548;50.506;30.834;2022-08-19T00:28:41;5.45;;;4.90;;
50591;SDS011;36548;50.506;30.834;2022-08-19T00:29:56;7.50;;;5.50;;
50591;SDS011;36548;50.506;30.834;2022-08-19T00:31:08;9.92;;;5.55;;
50591;SDS011;36548;50.506;30.834;2022-08-19T00:32:19;6.62;;;5.22;;
50591;SDS011;36548;50.506;30.834;2022-08-19T00:33:35;7.72;;;5.22;;
50591;SDS011;36548;50.506;30.834;2022-08-19T00:34:52;10.05;;;5.50;;
50591;SDS011;36548;50.506;30.834;2022-08-19T00:36:03;7.02;;;4.88;;
50591;SDS011;36548;50.506;30.834;2022-08-19T00:37:15;7.70;;;4.92;;
50591;SDS011;36548;50.506;30.834;2022-08-19T00:38:32;5.70;;;4.80;;
50591;SDS011;36548;50.506;30.834;2022-08-19T00:39:44;8.07;;;5.45;;
50591;SDS011;36548;50.506;30.834;2022-08-19T00:40:55;6.83;;;5.13;;
50591;SDS011;36548;50.506;30.834;2022-08-19T00:42:05;9.90;;;5.42;;
50591;SDS011;36548;50.506;30.834;2022-08-19T00:43:23;9.35;;;5.50;;
50591;SDS011;36548;50.506;30.834;2022-08-19T00:44:35;10.43;;;5.53;;
50591;SDS011;36548;50.506;30.834;2022-08-19T00:45:45;11.20;;;5.50;;
50591;SDS011;36548;50.506;30.834;2022-08-19T00:46:57;10.65;;;5.80;;
50591;SDS011;36548;50.506;30.834;2022-08-19T00:48:09;8.93;;;5.55;;
50591;SDS011;36548;50.506;30.834;2022-08-19T00:49:26;8.60;;;5.95;;
50591;SDS011;36548;50.506;30.834;2022-08-19T00:50:57;8.02;;;5.47;;
50591;SDS011;36548;50.506;30.834;2022-08-19T00:52:08;9.67;;;5.30;;
50591;SDS011;36548;50.506;30.834;2022-08-19T00:53:22;8.00;;;5.45;;
50591;SDS011;36548;50.506;30.834;2022-08-19T00:54:35;7.40;;;5.57;;
50591;SDS011;36548;50.506;30.834;2022-08-19T00:55:46;10.45;;;6.28;;
50591;SDS011;36548;50.506;30.834;2022-08-19T00:57:01;8.33;;;5.37;;
50591;SDS011;36548;50.506;30.834;2022-08-19T00:58:14;8.37;;;5.53;;
50591;SDS011;36548;50.506;30.834;2022-08-19T00:59:32;7.55;;;5.35;;
50591;SDS011;36548;50.506;30.834;2022-08-19T01:00:47;6.33;;;5.58;;
50591;SDS011;36548;50.506;30.834;2022-08-19T01:02:03;8.07;;;5.52;;
50591;SDS011;36548;50.506;30.834;2022-08-19T01:03:23;7.62;;;5.27;;
50591;SDS011;36548;50.506;30.834;2022-08-19T01:04:50;7.82;;;5.45;;
50591;SDS011;36548;50.506;30.834;2022-08-19T01:06:07;8.80;;;5.90;;
50591;SDS011;36548;50.506;30.834;2022-08-19T01:07:17;8.30;;;5.30;;
50591;SDS011;36548;50.506;30.834;2022-08-19T01:08:27;7.73;;;5.32;;
50591;SDS011;36548;50.506;30.834;2022-08-19T01:09:37;11.90;;;6.00;;
50591;SDS011;36548;50.506;30.834;2022-08-19T01:10:53;5.40;;;4.82;;
50591;SDS011;36548;50.506;30.834;2022-08-19T01:12:06;6.90;;;5.05;;
50591;SDS011;36548;50.506;30.834;2022-08-19T01:13:17;8.04;;;5.46;;
50591;SDS011;36548;50.506;30.834;2022-08-19T01:14:30;6.63;;;5.12;;
50591;SDS011;36548;50.506;30.834;2022-08-19T01:15:46;9.60;;;5.83;;
50591;SDS011;36548;50.506;30.834;2022-08-19T01:17:02;8.45;;;5.10;;
50591;SDS011;36548;50.506;30.834;2022-08-19T01:19:27;9.23;;;5.60;;
50591;SDS011;36548;50.506;30.834;2022-08-19T01:20:44;8.42;;;5.47;;
50591;SDS011;36548;50.506;30.834;2022-08-19T01:21:59;12.68;;;5.87;;
50591;SDS011;36548;50.506;30.834;2022-08-19T01:23:17;8.10;;;6.20;;
50591;SDS011;36548;50.506;30.834;2022-08-19T01:24:27;7.30;;;5.00;;
50591;SDS011;36548;50.506;30.834;2022-08-19T01:25:54;8.63;;;5.78;;
50591;SDS011;36548;50.506;30.834;2022-08-19T01:27:07;9.60;;;5.75;;
50591;SDS011;36548;50.506;30.834;2022-08-19T01:28:26;7.83;;;5.93;;
50591;SDS011;36548;50.506;30.834;2022-08-19T01:29:39;6.90;;;5.60;;
50591;SDS011;36548;50.506;30.834;2022-08-19T01:30:57;12.12;;;6.12;;
50591;SDS011;36548;50.506;30.834;2022-08-19T01:32:08;10.25;;;5.20;;
50591;SDS011;36548;50.506;30.834;2022-08-19T01:33:38;8.54;;;6.34;;
50591;SDS011;36548;50.506;30.834;2022-08-19T01:34:53;8.98;;;6.40;;
50591;SDS011;36548;50.506;30.834;2022-08-19T01:36:06;8.25;;;6.00;;
50591;SDS011;36548;50.506;30.834;2022-08-19T01:37:17;9.50;;;5.73;;
50591;SDS011;36548;50.506;30.834;2022-08-19T01:38:29;9.20;;;6.30;;
50591;SDS011;36548;50.506;30.834;2022-08-19T01:39:42;6.98;;;5.97;;
50591;SDS011;36548;50.506;30.834;2022-08-19T01:42:03;10.30;;;5.65;;
50591;SDS011;36548;50.506;30.834;2022-08-19T01:43:18;10.17;;;5.88;;
50591;SDS011;36548;50.506;30.834;2022-08-19T01:44:29;11.27;;;5.90;;
50591;SDS011;36548;50.506;30.834;2022-08-19T01:45:38;10.57;;;5.45;;
50591;SDS011;36548;50.506;30.834;2022-08-19T01:46:48;8.05;;;5.85;;
50591;SDS011;36548;50.506;30.834;2022-08-19T01:48:04;8.43;;;5.53;;
50591;SDS011;36548;50.506;30.834;2022-08-19T01:49:14;7.50;;;5.92;;
50591;SDS011;36548;50.506;30.834;2022-08-19T01:50:30;8.67;;;5.82;;
50591;SDS011;36548;50.506;30.834;2022-08-19T01:51:40;8.30;;;5.65;;
50591;SDS011;36548;50.506;30.834;2022-08-19T01:53:09;8.13;;;6.10;;
50591;SDS011;36548;50.506;30.834;2022-08-19T01:54:26;9.08;;;5.95;;
50591;SDS011;36548;50.506;30.834;2022-08-19T01:55:37;8.30;;;6.65;;
50591;SDS011;36548;50.506;30.834;2022-08-19T01:56:50;6.70;;;5.48;;
50591;SDS011;36548;50.506;30.834;2022-08-19T01:58:02;9.07;;;6.37;;
50591;SDS011;36548;50.506;30.834;2022-08-19T01:59:14;6.98;;;5.72;;
50591;SDS011;36548;50.506;30.834;2022-08-19T02:00:32;6.97;;;5.40;;
50591;SDS011;36548;50.506;30.834;2022-08-19T02:01:43;6.97;;;6.10;;
50591;SDS011;36548;50.506;30.834;2022-08-19T02:03:01;9.40;;;6.10;;
50591;SDS011;36548;50.506;30.834;2022-08-19T02:05:27;6.72;;;5.47;;
50591;SDS011;36548;50.506;30.834;2022-08-19T02:06:38;9.18;;;5.45;;
50591;SDS011;36548;50.506;30.834;2022-08-19T02:07:55;9.28;;;6.10;;
50591;SDS011;36548;50.506;30.834;2022-08-19T02:09:07;8.35;;;5.50;;
50591;SDS011;36548;50.506;30.834;2022-08-19T02:10:19;9.25;;;6.35;;
50591;SDS011;36548;50.506;30.834;2022-08-19T02:11:30;11.88;;;6.17;;
50591;SDS011;36548;50.506;30.834;2022-08-19T02:12:42;7.52;;;6.15;;
50591;SDS011;36548;50.506;30.834;2022-08-19T02:13:53;9.58;;;6.25;;
50591;SDS011;36548;50.506;30.834;2022-08-19T02:15:05;10.22;;;5.97;;
50591;SDS011;36548;50.506;30.834;2022-08-19T02:16:17;9.42;;;6.02;;
50591;SDS011;36548;50.506;30.834;2022-08-19T02:17:28;6.37;;;5.77;;
50591;SDS011;36548;50.506;30.834;2022-08-19T02:18:38;7.23;;;5.78;;
50591;SDS011;36548;50.506;30.834;2022-08-19T02:19:48;7.63;;;6.00;;
50591;SDS011;36548;50.506;30.834;2022-08-19T02:20:58;7.70;;;6.20;;
50591;SDS011;36548;50.506;30.834;2022-08-19T02:22:08;7.45;;;5.95;;
50591;SDS011;36548;50.506;30.834;2022-08-19T02:23:18;8.42;;;5.90;;
50591;SDS011;36548;50.506;30.834;2022-08-19T02:24:27;6.88;;;5.53;;
50591;SDS011;36548;50.506;30.834;2022-08-19T02:25:37;6.18;;;5.62;;
50591;SDS011;36548;50.506;30.834;2022-08-19T02:26:47;6.25;;;5.65;;
50591;SDS011;36548;50.506;30.834;2022-08-19T02:27:57;10.92;;;6.08;;
50591;SDS011;36548;50.506;30.834;2022-08-19T02:29:12;8.58;;;5.82;;
50591;SDS011;36548;50.506;30.834;2022-08-19T02:30:23;11.55;;;6.17;;
50591;SDS011;36548;50.506;30.834;2022-08-19T02:31:39;7.65;;;5.28;;
50591;SDS011;36548;50.506;30.834;2022-08-19T02:32:48;9.73;;;6.02;;
50591;SDS011;36548;50.506;30.834;2022-08-19T02:34:16;7.85;;;5.80;;
50591;SDS011;36548;50.506;30.834;2022-08-19T02:35:32;8.22;;;5.82;;
50591;SDS011;36548;50.506;30.834;2022-08-19T02:36:41;9.08;;;5.60;;
50591;SDS011;36548;50.506;30.834;2022-08-19T02:37:57;12.20;;;5.72;;
50591;SDS011;36548;50.506;30.834;2022-08-19T02:39:24;8.78;;;6.45;;
50591;SDS011;36548;50.506;30.834;2022-08-19T02:41:46;7.20;;;5.70;;
50591;SDS011;36548;50.506;30.834;2022-08-19T02:42:56;7.58;;;6.33;;
50591;SDS011;36548;50.506;30.834;2022-08-19T02:44:06;9.05;;;6.30;;
50591;SDS011;36548;50.506;30.834;2022-08-19T02:45:18;8.28;;;6.18;;
50591;SDS011;36548;50.506;30.834;2022-08-19T02:46:30;6.62;;;5.52;;
50591;SDS011;36548;50.506;30.834;2022-08-19T02:47:48;9.72;;;5.62;;
50591;SDS011;36548;50.506;30.834;2022-08-19T02:48:59;7.47;;;5.70;;
50591;SDS011;36548;50.506;30.834;2022-08-19T02:50:10;6.95;;;5.18;;
50591;SDS011;36548;50.506;30.834;2022-08-19T02:51:21;7.23;;;5.33;;
50591;SDS011;36548;50.506;30.834;2022-08-19T02:52:33;8.03;;;5.27;;
50591;SDS011;36548;50.506;30.834;2022-08-19T02:53:49;8.20;;;5.50;;
50591;SDS011;36548;50.506;30.834;2022-08-19T02:54:59;9.18;;;5.77;;
50591;SDS011;36548;50.506;30.834;2022-08-19T02:56:09;5.98;;;5.10;;
50591;SDS011;36548;50.506;30.834;2022-08-19T02:57:19;9.00;;;5.65;;
50591;SDS011;36548;50.506;30.834;2022-08-19T02:58:30;7.20;;;5.00;;
50591;SDS011;36548;50.506;30.834;2022-08-19T02:59:45;6.35;;;5.48;;
50591;SDS011;36548;50.506;30.834;2022-08-19T03:00:56;8.40;;;5.65;;
50591;SDS011;36548;50.506;30.834;2022-08-19T03:02:12;6.77;;;5.10;;
50591;SDS011;36548;50.506;30.834;2022-08-19T03:03:22;7.77;;;5.25;;
50591;SDS011;36548;50.506;30.834;2022-08-19T03:04:50;8.20;;;5.72;;
50591;SDS011;36548;50.506;30.834;2022-08-19T03:06:04;6.70;;;5.78;;
50591;SDS011;36548;50.506;30.834;2022-08-19T03:07:15;7.98;;;5.70;;
50591;SDS011;36548;50.506;30.834;2022-08-19T03:08:27;11.05;;;6.17;;
50591;SDS011;36548;50.506;30.834;2022-08-19T03:09:37;8.63;;;5.97;;
50591;SDS011;36548;50.506;30.834;2022-08-19T03:10:47;7.80;;;6.10;;
50591;SDS011;36548;50.506;30.834;2022-08-19T03:11:57;7.50;;;5.75;;
50591;SDS011;36548;50.506;30.834;2022-08-19T03:13:06;7.98;;;5.87;;
50591;SDS011;36548;50.506;30.834;2022-08-19T03:14:16;7.13;;;5.80;;
50591;SDS011;36548;50.506;30.834;2022-08-19T03:16:44;7.50;;;5.40;;
50591;SDS011;36548;50.506;30.834;2022-08-19T03:17:59;7.80;;;5.90;;
50591;SDS011;36548;50.506;30.834;2022-08-19T03:19:10;7.80;;;5.68;;
50591;SDS011;36548;50.506;30.834;2022-08-19T03:20:25;9.18;;;5.57;;
50591;SDS011;36548;50.506;30.834;2022-08-19T03:21:34;8.45;;;5.73;;
50591;SDS011;36548;50.506;30.834;2022-08-19T03:23:04;8.15;;;5.75;;
50591;SDS011;36548;50.506;30.834;2022-08-19T03:24:21;7.05;;;5.87;;
50591;SDS011;36548;50.506;30.834;2022-08-19T03:25:31;9.50;;;6.10;;
50591;SDS011;36548;50.506;30.834;2022-08-19T03:26:47;6.98;;;5.30;;
50591;SDS011;36548;50.506;30.834;2022-08-19T03:28:05;8.20;;;5.50;;
50591;SDS011;36548;50.506;30.834;2022-08-19T03:29:16;7.27;;;5.12;;
50591;SDS011;36548;50.506;30.834;2022-08-19T03:30:30;6.60;;;5.40;;
50591;SDS011;36548;50.506;30.834;2022-08-19T03:31:46;9.40;;;5.82;;
50591;SDS011;36548;50.506;30.834;2022-08-19T03:32:58;7.73;;;5.82;;
50591;SDS011;36548;50.506;30.834;2022-08-19T03:34:09;8.00;;;5.80;;
50591;SDS011;36548;50.506;30.834;2022-08-19T03:35:21;7.82;;;5.73;;
50591;SDS011;36548;50.506;30.834;2022-08-19T03:36:32;8.93;;;5.62;;
50591;SDS011;36548;50.506;30.834;2022-08-19T03:37:41;6.57;;;5.90;;
50591;SDS011;36548;50.506;30.834;2022-08-19T03:38:52;9.27;;;5.98;;
50591;SDS011;36548;50.506;30.834;2022-08-19T03:40:07;6.88;;;5.43;;
50591;SDS011;36548;50.506;30.834;2022-08-19T03:41:24;6.40;;;5.42;;
50591;SDS011;36548;50.506;30.834;2022-08-19T03:42:41;8.07;;;5.65;;
50591;SDS011;36548;50.506;30.834;2022-08-19T03:43:53;8.77;;;5.58;;
50591;SDS011;36548;50.506;30.834;2022-08-19T03:45:04;7.45;;;5.35;;
50591;SDS011;36548;50.506;30.834;2022-08-19T03:46:26;8.53;;;5.63;;
50591;SDS011;36548;50.506;30.834;2022-08-19T03:47:34;7.45;;;5.10;;
50591;SDS011;36548;50.506;30.834;2022-08-19T03:48:43;9.78;;;5.70;;
50591;SDS011;36548;50.506;30.834;2022-08-19T03:49:53;8.56;;;5.52;;
50591;SDS011;36548;50.506;30.834;2022-08-19T03:51:27;9.30;;;5.57;;
50591;SDS011;36548;50.506;30.834;2022-08-19T03:52:39;10.90;;;5.67;;
50591;SDS011;36548;50.506;30.834;2022-08-19T03:53:52;9.35;;;5.25;;
50591;SDS011;36548;50.506;30.834;2022-08-19T03:55:03;6.50;;;5.20;;
50591;SDS011;36548;50.506;30.834;2022-08-19T03:56:15;7.18;;;5.55;;
50591;SDS011;36548;50.506;30.834;2022-08-19T03:57:30;10.58;;;5.50;;
50591;SDS011;36548;50.506;30.834;2022-08-19T03:58:42;6.10;;;5.45;;
50591;SDS011;36548;50.506;30.834;2022-08-19T03:59:53;7.92;;;6.08;;
50591;SDS011;36548;50.506;30.834;2022-08-19T04:01:14;8.38;;;4.93;;
50591;SDS011;36548;50.506;30.834;2022-08-19T04:02:27;8.10;;;5.20;;
50591;SDS011;36548;50.506;30.834;2022-08-19T04:03:38;9.15;;;4.70;;
50591;SDS011;36548;50.506;30.834;2022-08-19T04:04:47;8.60;;;5.50;;
50591;SDS011;36548;50.506;30.834;2022-08-19T04:07:08;6.85;;;4.85;;
50591;SDS011;36548;50.506;30.834;2022-08-19T04:08:25;9.73;;;5.50;;
50591;SDS011;36548;50.506;30.834;2022-08-19T04:09:35;7.17;;;4.90;;
50591;SDS011;36548;50.506;30.834;2022-08-19T04:10:48;9.80;;;5.45;;
50591;SDS011;36548;50.506;30.834;2022-08-19T04:14:18;7.63;;;5.18;;
50591;SDS011;36548;50.506;30.834;2022-08-19T04:15:38;8.50;;;4.78;;
50591;SDS011;36548;50.506;30.834;2022-08-19T04:16:52;5.77;;;4.52;;
50591;SDS011;36548;50.506;30.834;2022-08-19T04:18:02;8.55;;;5.05;;
50591;SDS011;36548;50.506;30.834;2022-08-19T04:19:20;5.38;;;4.48;;
50591;SDS011;36548;50.506;30.834;2022-08-19T04:20:38;7.03;;;4.82;;
50591;SDS011;36548;50.506;30.834;2022-08-19T04:21:57;8.07;;;4.97;;
50591;SDS011;36548;50.506;30.834;2022-08-19T04:23:08;5.92;;;4.80;;
50591;SDS011;36548;50.506;30.834;2022-08-19T04:24:17;9.57;;;5.03;;
50591;SDS011;36548;50.506;30.834;2022-08-19T04:26:55;15.90;;;11.55;;
50591;SDS011;36548;50.506;30.834;2022-08-19T04:28:22;6.35;;;4.83;;
50591;SDS011;36548;50.506;30.834;2022-08-19T04:30:49;7.90;;;5.13;;
50591;SDS011;36548;50.506;30.834;2022-08-19T04:32:02;7.32;;;4.80;;
50591;SDS011;36548;50.506;30.834;2022-08-19T04:33:16;7.30;;;4.15;;
50591;SDS011;36548;50.506;30.834;2022-08-19T04:34:29;6.28;;;4.63;;
50591;SDS011;36548;50.506;30.834;2022-08-19T04:36:57;12.03;;;4.70;;
50591;SDS011;36548;50.506;30.834;2022-08-19T04:38:07;4.87;;;4.35;;
50591;SDS011;36548;50.506;30.834;2022-08-19T04:39:23;5.75;;;4.63;;
50591;SDS011;36548;50.506;30.834;2022-08-19T04:41:05;7.52;;;4.68;;
50591;SDS011;36548;50.506;30.834;2022-08-19T04:42:33;5.48;;;4.80;;
50591;SDS011;36548;50.506;30.834;2022-08-19T04:43:56;8.62;;;4.72;;
50591;SDS011;36548;50.506;30.834;2022-08-19T04:45:13;8.22;;;4.57;;
50591;SDS011;36548;50.506;30.834;2022-08-19T04:46:40;13.25;;;5.33;;
50591;SDS011;36548;50.506;30.834;2022-08-19T04:47:54;6.32;;;4.78;;
50591;SDS011;36548;50.506;30.834;2022-08-19T04:49:09;7.63;;;4.50;;
50591;SDS011;36548;50.506;30.834;2022-08-19T04:50:24;8.03;;;4.62;;
50591;SDS011;36548;50.506;30.834;2022-08-19T04:51:35;6.03;;;4.35;;
50591;SDS011;36548;50.506;30.834;2022-08-19T04:52:52;8.50;;;4.90;;
50591;SDS011;36548;50.506;30.834;2022-08-19T04:54:03;6.57;;;4.72;;
50591;SDS011;36548;50.506;30.834;2022-08-19T04:55:13;6.90;;;4.80;;
50591;SDS011;36548;50.506;30.834;2022-08-19T04:56:29;9.23;;;4.70;;
50591;SDS011;36548;50.506;30.834;2022-08-19T04:57:39;9.02;;;4.25;;
50591;SDS011;36548;50.506;30.834;2022-08-19T04:58:56;9.35;;;4.42;;
50591;SDS011;36548;50.506;30.834;2022-08-19T05:00:11;5.95;;;4.43;;
50591;SDS011;36548;50.506;30.834;2022-08-19T05:01:27;9.10;;;4.65;;
50591;SDS011;36548;50.506;30.834;2022-08-19T05:02:38;7.93;;;4.67;;
50591;SDS011;36548;50.506;30.834;2022-08-19T05:04:05;6.40;;;4.35;;
50591;SDS011;36548;50.506;30.834;2022-08-19T05:05:16;4.80;;;4.03;;
50591;SDS011;36548;50.506;30.834;2022-08-19T05:06:32;9.17;;;4.67;;
50591;SDS011;36548;50.506;30.834;2022-08-19T05:07:42;7.05;;;4.35;;
50591;SDS011;36548;50.506;30.834;2022-08-19T05:08:55;8.38;;;4.62;;
50591;SDS011;36548;50.506;30.834;2022-08-19T05:10:05;6.17;;;4.75;;
50591;SDS011;36548;50.506;30.834;2022-08-19T05:12:31;5.67;;;4.52;;
50591;SDS011;36548;50.506;30.834;2022-08-19T05:13:40;8.08;;;4.47;;
50591;SDS011;36548;50.506;30.834;2022-08-19T05:14:51;7.52;;;4.67;;
50591;SDS011;36548;50.506;30.834;2022-08-19T05:16:01;6.85;;;4.65;;
50591;SDS011;36548;50.506;30.834;2022-08-19T05:17:16;6.47;;;4.30;;
50591;SDS011;36548;50.506;30.834;2022-08-19T05:18:27;9.25;;;4.18;;
50591;SDS011;36548;50.506;30.834;2022-08-19T05:20:02;9.24;;;4.38;;
50591;SDS011;36548;50.506;30.834;2022-08-19T05:23:06;7.15;;;4.22;;
50591;SDS011;36548;50.506;30.834;2022-08-19T05:24:18;7.98;;;4.42;;
50591;SDS011;36548;50.506;30.834;2022-08-19T05:25:28;6.46;;;4.52;;
50591;SDS011;36548;50.506;30.834;2022-08-19T05:26:44;7.65;;;4.23;;
50591;SDS011;36548;50.506;30.834;2022-08-19T05:27:57;10.75;;;4.35;;
50591;SDS011;36548;50.506;30.834;2022-08-19T05:29:13;6.78;;;3.98;;
50591;SDS011;36548;50.506;30.834;2022-08-19T05:30:26;8.35;;;4.52;;
50591;SDS011;36548;50.506;30.834;2022-08-19T05:31:53;7.58;;;4.37;;
50591;SDS011;36548;50.506;30.834;2022-08-19T05:33:03;6.57;;;4.10;;
50591;SDS011;36548;50.506;30.834;2022-08-19T05:34:15;8.95;;;4.30;;
50591;SDS011;36548;50.506;30.834;2022-08-19T05:35:31;7.03;;;3.97;;
50591;SDS011;36548;50.506;30.834;2022-08-19T05:36:44;9.30;;;4.65;;
50591;SDS011;36548;50.506;30.834;2022-08-19T05:37:53;7.62;;;4.24;;
50591;SDS011;36548;50.506;30.834;2022-08-19T05:39:13;4.97;;;4.10;;
50591;SDS011;36548;50.506;30.834;2022-08-19T05:40:25;8.02;;;4.36;;
50591;SDS011;36548;50.506;30.834;2022-08-19T05:41:40;7.40;;;4.33;;
50591;SDS011;36548;50.506;30.834;2022-08-19T05:43:00;6.90;;;4.40;;
50591;SDS011;36548;50.506;30.834;2022-08-19T05:44:10;7.90;;;4.60;;
50591;SDS011;36548;50.506;30.834;2022-08-19T05:45:20;9.25;;;4.15;;
50591;SDS011;36548;50.506;30.834;2022-08-19T05:46:30;6.60;;;4.40;;
50591;SDS011;36548;50.506;30.834;2022-08-19T05:47:40;6.85;;;4.20;;
50591;SDS011;36548;50.506;30.834;2022-08-19T05:48:51;7.80;;;3.95;;
50591;SDS011;36548;50.506;30.834;2022-08-19T05:50:02;8.70;;;3.58;;
50591;SDS011;36548;50.506;30.834;2022-08-19T05:51:18;6.70;;;4.20;;
50591;SDS011;36548;50.506;30.834;2022-08-19T05:52:28;7.08;;;4.25;;
50591;SDS011;36548;50.506;30.834;2022-08-19T05:53:38;8.20;;;5.00;;
50591;SDS011;36548;50.506;30.834;2022-08-19T05:54:53;7.90;;;3.90;;
50591;SDS011;36548;50.506;30.834;2022-08-19T05:56:05;6.80;;;4.32;;
50591;SDS011;36548;50.506;30.834;2022-08-19T05:57:25;6.07;;;4.30;;
50591;SDS011;36548;50.506;30.834;2022-08-19T05:58:38;6.40;;;4.25;;
50591;SDS011;36548;50.506;30.834;2022-08-19T05:59:48;5.18;;;4.07;;
50591;SDS011;36548;50.506;30.834;2022-08-19T06:01:01;9.98;;;4.50;;
50591;SDS011;36548;50.506;30.834;2022-08-19T06:02:20;8.17;;;4.52;;
50591;SDS011;36548;50.506;30.834;2022-08-19T06:03:32;8.45;;;3.97;;
50591;SDS011;36548;50.506;30.834;2022-08-19T06:04:42;7.03;;;4.13;;
50591;SDS011;36548;50.506;30.834;2022-08-19T06:09:42;5.83;;;4.30;;
50591;SDS011;36548;50.506;30.834;2022-08-19T06:10:54;9.02;;;4.32;;
50591;SDS011;36548;50.506;30.834;2022-08-19T06:12:04;9.35;;;4.05;;
50591;SDS011;36548;50.506;30.834;2022-08-19T06:13:21;6.75;;;4.50;;
50591;SDS011;36548;50.506;30.834;2022-08-19T06:14:34;6.37;;;4.53;;
50591;SDS011;36548;50.506;30.834;2022-08-19T06:15:46;9.47;;;4.12;;
50591;SDS011;36548;50.506;30.834;2022-08-19T06:16:57;5.85;;;4.25;;
50591;SDS011;36548;50.506;30.834;2022-08-19T06:18:10;6.12;;;4.70;;
50591;SDS011;36548;50.506;30.834;2022-08-19T06:19:27;11.55;;;7.20;;
50591;SDS011;36548;50.506;30.834;2022-08-19T06:20:40;9.50;;;5.92;;
50591;SDS011;36548;50.506;30.834;2022-08-19T06:21:52;7.45;;;5.30;;
50591;SDS011;36548;50.506;30.834;2022-08-19T06:23:08;7.95;;;4.58;;
50591;SDS011;36548;50.506;30.834;2022-08-19T06:24:22;4.42;;;3.88;;
50591;SDS011;36548;50.506;30.834;2022-08-19T06:25:33;10.80;;;4.75;;
50591;SDS011;36548;50.506;30.834;2022-08-19T06:26:43;6.27;;;3.68;;
50591;SDS011;36548;50.506;30.834;2022-08-19T06:27:54;8.42;;;4.42;;
50591;SDS011;36548;50.506;30.834;2022-08-19T06:29:06;7.77;;;3.90;;
50591;SDS011;36548;50.506;30.834;2022-08-19T06:30:21;8.68;;;4.28;;
50591;SDS011;36548;50.506;30.834;2022-08-19T06:31:36;8.93;;;4.30;;
50591;SDS011;36548;50.506;30.834;2022-08-19T06:32:49;5.87;;;3.92;;
50591;SDS011;36548;50.506;30.834;2022-08-19T06:34:01;6.53;;;3.67;;
50591;SDS011;36548;50.506;30.834;2022-08-19T06:35:18;9.87;;;4.05;;
50591;SDS011;36548;50.506;30.834;2022-08-19T06:36:32;6.02;;;4.18;;
50591;SDS011;36548;50.506;30.834;2022-08-19T06:37:43;7.60;;;4.00;;
50591;SDS011;36548;50.506;30.834;2022-08-19T06:38:58;6.57;;;4.12;;
50591;SDS011;36548;50.506;30.834;2022-08-19T06:40:11;6.30;;;4.00;;
50591;SDS011;36548;50.506;30.834;2022-08-19T06:41:23;5.90;;;3.78;;
50591;SDS011;36548;50.506;30.834;2022-08-19T06:42:42;5.98;;;3.77;;
50591;SDS011;36548;50.506;30.834;2022-08-19T06:43:55;7.70;;;4.28;;
50591;SDS011;36548;50.506;30.834;2022-08-19T06:45:12;7.20;;;4.15;;
50591;SDS011;36548;50.506;30.834;2022-08-19T06:46:22;8.50;;;4.85;;
50591;SDS011;36548;50.506;30.834;2022-08-19T06:47:51;9.75;;;4.93;;
50591;SDS011;36548;50.506;30.834;2022-08-19T06:49:08;8.42;;;4.12;;
50591;SDS011;36548;50.506;30.834;2022-08-19T06:50:20;6.12;;;3.47;;
50591;SDS011;36548;50.506;30.834;2022-08-19T06:51:33;8.35;;;3.95;;
50591;SDS011;36548;50.506;30.834;2022-08-19T06:52:48;6.85;;;3.98;;
50591;SDS011;36548;50.506;30.834;2022-08-19T06:53:59;6.20;;;4.00;;
50591;SDS011;36548;50.506;30.834;2022-08-19T06:55:14;9.03;;;4.00;;
50591;SDS011;36548;50.506;30.834;2022-08-19T06:56:27;6.68;;;4.27;;
50591;SDS011;36548;50.506;30.834;2022-08-19T06:58:00;8.57;;;4.42;;
50591;SDS011;36548;50.506;30.834;2022-08-19T06:59:21;5.80;;;4.35;;
50591;SDS011;36548;50.506;30.834;2022-08-19T07:00:33;7.88;;;4.08;;
50591;SDS011;36548;50.506;30.834;2022-08-19T07:01:52;7.00;;;4.55;;
50591;SDS011;36548;50.506;30.834;2022-08-19T07:03:06;6.35;;;3.90;;
50591;SDS011;36548;50.506;30.834;2022-08-19T07:04:18;8.17;;;4.10;;
50591;SDS011;36548;50.506;30.834;2022-08-19T07:05:40;6.25;;;3.90;;
50591;SDS011;36548;50.506;30.834;2022-08-19T07:06:58;11.02;;;4.07;;
50591;SDS011;36548;50.506;30.834;2022-08-19T07:08:12;11.05;;;4.70;;
50591;SDS011;36548;50.506;30.834;2022-08-19T07:09:29;9.03;;;4.10;;
50591;SDS011;36548;50.506;30.834;2022-08-19T07:10:42;7.22;;;4.22;;
50591;SDS011;36548;50.506;30.834;2022-08-19T07:11:53;7.30;;;3.90;;
50591;SDS011;36548;50.506;30.834;2022-08-19T07:13:05;6.90;;;4.15;;
50591;SDS011;36548;50.506;30.834;2022-08-19T07:14:24;8.13;;;3.92;;
50591;SDS011;36548;50.506;30.834;2022-08-19T07:15:35;6.55;;;4.00;;
50591;SDS011;36548;50.506;30.834;2022-08-19T07:16:48;6.00;;;4.17;;
50591;SDS011;36548;50.506;30.834;2022-08-19T07:18:06;7.95;;;4.95;;
50591;SDS011;36548;50.506;30.834;2022-08-19T07:19:18;10.98;;;4.08;;
50591;SDS011;36548;50.506;30.834;2022-08-19T07:20:34;7.30;;;4.47;;
50591;SDS011;36548;50.506;30.834;2022-08-19T07:21:47;7.52;;;4.25;;
50591;SDS011;36548;50.506;30.834;2022-08-19T07:23:06;7.38;;;4.23;;
50591;SDS011;36548;50.506;30.834;2022-08-19T07:24:15;10.15;;;3.88;;
50591;SDS011;36548;50.506;30.834;2022-08-19T07:25:25;7.63;;;4.17;;
50591;SDS011;36548;50.506;30.834;2022-08-19T07:26:40;7.32;;;4.53;;
50591;SDS011;36548;50.506;30.834;2022-08-19T07:27:51;6.92;;;3.98;;
50591;SDS011;36548;50.506;30.834;2022-08-19T07:29:02;7.42;;;3.90;;
50591;SDS011;36548;50.506;30.834;2022-08-19T07:30:26;8.35;;;4.75;;
50591;SDS011;36548;50.506;30.834;2022-08-19T07:31:36;9.90;;;5.00;;
50591;SDS011;36548;50.506;30.834;2022-08-19T07:33:58;9.57;;;4.58;;
50591;SDS011;36548;50.506;30.834;2022-08-19T07:35:07;8.67;;;4.37;;
50591;SDS011;36548;50.506;30.834;2022-08-19T07:36:22;8.50;;;4.52;;
50591;SDS011;36548;50.506;30.834;2022-08-19T07:37:34;7.40;;;4.25;;
50591;SDS011;36548;50.506;30.834;2022-08-19T07:38:45;10.25;;;5.17;;
50591;SDS011;36548;50.506;30.834;2022-08-19T07:40:04;13.25;;;5.40;;
50591;SDS011;36548;50.506;30.834;2022-08-19T07:41:18;12.10;;;5.18;;
50591;SDS011;36548;50.506;30.834;2022-08-19T07:42:29;7.15;;;4.38;;